createdAt,value
2019-04-27T00:00:15.007Z,88.48
2019-04-27T00:02:55.818Z,88.55
2019-04-27T00:05:37.910Z,88.33
2019-04-27T00:08:18.631Z,88.18
2019-04-27T00:11:15.601Z,88.03
2019-04-27T00:13:46.166Z,88.21
2019-04-27T00:16:40.483Z,87.75
2019-04-27T00:19:43.823Z,87.82
2019-04-27T00:22:24.135Z,87.87
2019-04-27T00:24:53.238Z,87.73
2019-04-27T00:27:23.441Z,87.72
2019-04-27T00:29:53.551Z,87.60
2019-04-27T00:32:23.113Z,87.76
2019-04-27T00:34:53.246Z,87.73
2019-04-27T00:37:30.112Z,87.77
2019-04-27T00:40:06.623Z,87.87
2019-04-27T00:42:35.824Z,87.87
2019-04-27T00:45:05.634Z,87.58
2019-04-27T00:47:35.082Z,87.21
2019-04-27T00:50:04.464Z,87.29
2019-04-27T00:52:35.368Z,87.11
2019-04-27T00:55:04.530Z,87.34
2019-04-27T00:57:43.615Z,87.32
2019-04-27T01:00:30.580Z,87.33
2019-04-27T01:03:07.804Z,86.98
2019-04-27T01:05:36.862Z,86.89
2019-04-27T01:08:05.657Z,86.79
2019-04-27T01:10:34.533Z,86.50
2019-04-27T01:13:03.906Z,86.62
2019-04-27T01:15:33.955Z,86.60
2019-04-27T01:18:12.335Z,86.82
2019-04-27T01:20:33.844Z,86.59
2019-04-27T01:23:02.671Z,86.37
2019-04-27T01:25:48.848Z,86.52
2019-04-27T01:28:29.087Z,86.55
2019-04-27T01:31:02.488Z,85.89
2019-04-27T01:33:33.927Z,86.07
2019-04-27T01:36:02.635Z,86.09
2019-04-27T01:38:31.358Z,86.23
2019-04-27T01:41:00.571Z,85.61
2019-04-27T01:43:30.273Z,85.19
2019-04-27T01:46:01.028Z,85.24
2019-04-27T01:48:30.570Z,85.43
2019-04-27T01:51:00.687Z,85.49
2019-04-27T01:53:30.468Z,85.32
2019-04-27T01:55:59.463Z,85.11
2019-04-27T01:58:29.291Z,85.48
2019-04-27T02:01:16.294Z,85.67
2019-04-27T02:04:02.687Z,85.76
2019-04-27T02:06:31.601Z,86.04
2019-04-27T02:09:00.413Z,86.50
2019-04-27T02:11:29.256Z,86.36
2019-04-27T02:13:59.429Z,86.25
2019-04-27T02:16:30.348Z,86.27
2019-04-27T02:18:58.900Z,86.31
2019-04-27T02:21:29.453Z,86.48
2019-04-27T02:23:59.798Z,86.95
2019-04-27T02:26:29.898Z,86.80
2019-04-27T02:29:09.517Z,87.35
2019-04-27T02:32:06.362Z,87.16
2019-04-27T02:34:42.807Z,87.21
2019-04-27T02:37:11.842Z,87.11
2019-04-27T02:39:42.389Z,87.47
2019-04-27T02:42:11.548Z,87.85
2019-04-27T02:44:41.161Z,87.53
2019-04-27T02:47:12.054Z,88.05
2019-04-27T02:49:40.940Z,87.90
2019-04-27T02:52:31.515Z,87.81
2019-04-27T02:55:00.527Z,88.52
2019-04-27T02:57:30.089Z,88.05
2019-04-27T03:00:00.005Z,88.21
2019-04-27T03:02:40.410Z,88.45
2019-04-27T03:05:10.900Z,87.80
2019-04-27T03:07:42.877Z,87.76
2019-04-27T03:10:11.485Z,87.52
2019-04-27T03:12:45.786Z,87.94
2019-04-27T03:15:32.334Z,87.92
2019-04-27T03:18:15.199Z,87.97
2019-04-27T03:20:56.161Z,88.22
2019-04-27T03:23:25.100Z,88.36
2019-04-27T03:26:21.833Z,88.38
2019-04-27T03:28:50.801Z,88.50
2019-04-27T03:31:21.510Z,88.26
2019-04-27T03:33:57.945Z,88.71
2019-04-27T03:36:21.644Z,89.00
2019-04-27T03:38:50.663Z,88.95
2019-04-27T03:41:19.442Z,88.61
2019-04-27T03:43:50.323Z,88.67
2019-04-27T03:46:20.407Z,88.70
2019-04-27T03:48:49.877Z,88.83
2019-04-27T03:51:35.038Z,88.56
2019-04-27T03:54:22.298Z,88.74
2019-04-27T03:57:02.396Z,88.64
2019-04-27T03:59:51.865Z,88.69
2019-04-27T04:02:20.668Z,88.71
2019-04-27T04:04:50.696Z,88.71
2019-04-27T04:07:19.866Z,89.02
2019-04-27T04:09:50.316Z,89.07
2019-04-27T04:12:46.019Z,88.48
2019-04-27T04:15:25.099Z,88.31
2019-04-27T04:17:53.816Z,88.77
2019-04-27T04:20:22.652Z,88.50
2019-04-27T04:22:51.657Z,88.38
2019-04-27T04:25:20.379Z,87.86
2019-04-27T04:27:52.257Z,88.23
2019-04-27T04:30:21.235Z,88.11
2019-04-27T04:32:51.999Z,88.07
2019-04-27T04:35:22.212Z,88.05
2019-04-27T04:37:52.928Z,88.30
2019-04-27T04:40:25.604Z,87.84
2019-04-27T04:43:04.085Z,88.10
2019-04-27T04:45:52.795Z,88.80
2019-04-27T04:48:21.792Z,88.56
2019-04-27T04:50:50.613Z,88.45
2019-04-27T04:53:20.567Z,88.27
2019-04-27T04:55:49.647Z,88.79
2019-04-27T04:58:21.002Z,88.42
2019-04-27T05:00:50.164Z,88.42
2019-04-27T05:03:22.173Z,88.38
2019-04-27T05:05:51.114Z,88.42
2019-04-27T05:08:19.906Z,88.55
2019-04-27T05:10:49.758Z,88.66
2019-04-27T05:13:19.305Z,88.89
2019-04-27T05:15:48.832Z,88.58
2019-04-27T05:18:19.138Z,89.43
2019-04-27T05:20:54.697Z,88.27
2019-04-27T05:23:23.618Z,88.05
2019-04-27T05:25:52.405Z,88.29
2019-04-27T05:28:23.953Z,88.19
2019-04-27T05:30:52.778Z,88.08
2019-04-27T05:33:21.486Z,87.97
2019-04-27T05:35:50.281Z,88.06
2019-04-27T05:38:19.485Z,87.71
2019-04-27T05:40:49.991Z,87.87
2019-04-27T05:43:20.613Z,86.91
2019-04-27T05:46:44.698Z,87.69
2019-04-27T05:49:23.403Z,87.48
2019-04-27T05:51:52.218Z,87.57
2019-04-27T05:54:21.137Z,87.97
2019-04-27T05:56:49.968Z,87.87
2019-04-27T05:59:19.792Z,87.27
2019-04-27T06:01:51.844Z,87.78
2019-04-27T06:04:20.776Z,87.70
2019-04-27T06:06:50.000Z,87.09
2019-04-27T06:09:19.530Z,87.74
2019-04-27T06:11:50.607Z,87.84
2019-04-27T06:14:19.346Z,87.89
2019-04-27T06:16:49.381Z,87.54
2019-04-27T06:21:54.721Z,86.85
2019-04-27T06:24:25.879Z,86.68
2019-04-27T06:26:54.862Z,85.43
2019-04-27T06:29:24.001Z,84.87
2019-04-27T06:31:52.951Z,84.25
2019-04-27T06:34:21.813Z,84.16
2019-04-27T06:36:50.752Z,83.16
2019-04-27T06:39:22.764Z,83.50
2019-04-27T06:41:51.477Z,83.86
2019-04-27T06:44:22.434Z,83.24
2019-04-27T06:46:51.421Z,83.13
2019-04-27T06:49:20.299Z,83.19
2019-04-27T06:51:51.253Z,83.10
2019-04-27T06:54:21.426Z,83.12
2019-04-27T06:56:53.647Z,82.99
2019-04-27T07:02:50.325Z,82.31
2019-04-27T07:05:20.427Z,79.69
2019-04-27T07:07:49.441Z,79.43
2019-04-27T07:10:18.689Z,79.21
2019-04-27T07:12:49.110Z,79.76
2019-04-27T07:15:20.170Z,79.61
2019-04-27T07:17:48.978Z,79.69
2019-04-27T07:20:19.467Z,77.33
2019-04-27T07:22:49.673Z,78.35
2019-04-27T07:25:18.940Z,77.13
2019-04-27T07:27:49.398Z,76.54
2019-04-27T07:30:19.099Z,77.16
2019-04-27T07:32:49.077Z,75.79
2019-04-27T07:35:25.003Z,74.60
2019-04-27T07:37:56.423Z,74.76
2019-04-27T07:40:25.257Z,73.65
2019-04-27T07:42:59.721Z,70.36
2019-04-27T07:45:32.898Z,72.60
2019-04-27T07:48:04.857Z,71.16
2019-04-27T07:50:34.805Z,70.86
2019-04-27T07:53:14.138Z,70.65
2019-04-27T07:55:43.227Z,71.37
2019-04-27T07:58:14.231Z,72.50
2019-04-27T08:00:43.068Z,73.24
2019-04-27T08:03:12.044Z,74.26
2019-04-27T08:05:42.456Z,73.82
2019-04-27T08:08:11.465Z,74.61
2019-04-27T08:10:40.486Z,72.58
2019-04-27T08:13:09.639Z,73.38
2019-04-27T08:15:39.624Z,74.32
2019-04-27T08:18:09.061Z,74.00
2019-04-27T08:20:39.082Z,74.74
2019-04-27T08:23:09.808Z,75.54
2019-04-27T08:25:40.848Z,76.18
2019-04-27T08:28:28.779Z,75.85
2019-04-27T08:31:29.884Z,75.98
2019-04-27T08:34:03.544Z,76.40
2019-04-27T08:36:36.450Z,75.43
2019-04-27T08:39:09.249Z,74.35
2019-04-27T08:41:40.024Z,74.26
2019-04-27T08:44:12.266Z,74.73
2019-04-27T08:46:47.132Z,73.61
2019-04-27T08:49:18.911Z,73.11
2019-04-27T08:51:57.171Z,71.94
2019-04-27T08:54:19.322Z,72.97
2019-04-27T08:56:49.490Z,72.00
2019-04-27T08:59:19.459Z,72.42
2019-04-27T09:01:49.308Z,69.91
2019-04-27T09:04:20.107Z,69.63
2019-04-27T09:06:59.769Z,69.25
2019-04-27T09:14:47.215Z,63.66
2019-04-27T09:17:20.881Z,63.13
2019-04-27T09:20:00.976Z,62.65
2019-04-27T09:22:29.778Z,63.78
2019-04-27T09:24:59.510Z,63.95
2019-04-27T09:27:29.003Z,65.00
2019-04-27T09:29:59.076Z,64.40
2019-04-27T09:32:31.010Z,65.18
2019-04-27T09:34:59.773Z,66.03
2019-04-27T09:37:28.612Z,63.99
2019-04-27T09:39:58.779Z,63.44
2019-04-27T09:42:27.699Z,61.91
2019-04-27T09:44:57.261Z,62.43
2019-04-27T09:47:26.640Z,63.65
2019-04-27T09:49:56.533Z,64.00
2019-04-27T09:52:26.972Z,59.23
2019-04-27T09:54:56.081Z,59.96
2019-04-27T09:57:25.967Z,60.67
2019-04-27T09:59:56.446Z,60.94
2019-04-27T10:02:26.979Z,61.18
2019-04-27T10:04:56.558Z,60.19
2019-04-27T10:07:26.959Z,60.81
2019-04-27T10:09:56.705Z,59.55
2019-04-27T10:12:26.138Z,59.68
2019-04-27T10:14:56.021Z,61.71
2019-04-27T10:17:24.739Z,60.93
2019-04-27T10:19:53.459Z,60.99
2019-04-27T10:22:22.616Z,59.35
2019-04-27T10:24:51.578Z,59.54
2019-04-27T10:27:20.341Z,59.69
2019-04-27T10:29:49.649Z,60.12
2019-04-27T10:32:18.511Z,59.38
2019-04-27T10:34:47.388Z,59.84
2019-04-27T10:37:16.233Z,58.69
2019-04-27T10:39:45.984Z,57.95
2019-04-27T10:42:15.228Z,58.55
2019-04-27T10:44:45.991Z,57.85
2019-04-27T10:47:15.880Z,58.67
2019-04-27T10:49:48.007Z,57.57
2019-04-27T10:52:15.384Z,58.93
2019-04-27T10:54:59.279Z,57.53
2019-04-27T10:57:39.358Z,55.88
2019-04-27T11:00:11.613Z,55.53
2019-04-27T11:02:42.470Z,53.66
2019-04-27T11:05:23.313Z,52.17
2019-04-27T11:07:52.576Z,53.71
2019-04-27T11:10:21.790Z,52.73
2019-04-27T11:12:50.652Z,54.12
2019-04-27T11:15:19.627Z,50.89
2019-04-27T11:17:48.525Z,53.92
2019-04-27T11:20:27.725Z,52.52
2019-04-27T11:23:07.179Z,51.03
2019-04-27T11:25:29.304Z,51.33
2019-04-27T11:27:58.077Z,50.64
2019-04-27T11:30:27.506Z,50.40
2019-04-27T11:32:58.988Z,48.80
2019-04-27T11:35:46.963Z,48.79
2019-04-27T11:38:17.020Z,45.51
2019-04-27T11:40:46.610Z,48.09
2019-04-27T11:43:16.244Z,47.95
2019-04-27T11:45:45.790Z,45.79
2019-04-27T11:48:16.194Z,46.32
2019-04-27T11:50:46.139Z,46.06
2019-04-27T11:53:22.771Z,45.05
2019-04-27T11:55:46.250Z,44.94
2019-04-27T11:58:18.202Z,46.77
2019-04-27T12:00:47.317Z,43.56
2019-04-27T12:03:16.654Z,46.51
2019-04-27T12:05:46.457Z,45.98
2019-04-27T12:08:16.218Z,44.43
2019-04-27T12:10:46.351Z,45.47
2019-04-27T12:13:16.377Z,44.94
2019-04-27T12:15:46.467Z,43.38
2019-04-27T12:18:15.340Z,43.81
2019-04-27T12:20:45.777Z,42.04
2019-04-27T12:23:16.496Z,40.25
2019-04-27T12:25:46.247Z,41.70
2019-04-27T12:28:23.180Z,41.65
2019-04-27T12:31:09.997Z,41.60
2019-04-27T12:33:39.507Z,40.46
2019-04-27T12:36:08.560Z,43.18
2019-04-27T12:38:37.591Z,44.13
2019-04-27T12:41:10.802Z,42.99
2019-04-27T12:43:40.703Z,42.92
2019-04-27T12:46:09.970Z,44.57
2019-04-27T12:48:40.420Z,44.73
2019-04-27T12:51:09.624Z,43.85
2019-04-27T12:54:12.880Z,48.31
2019-04-27T12:57:03.659Z,52.11
2019-04-27T12:59:50.249Z,53.32
2019-04-27T13:02:21.020Z,53.96
2019-04-27T13:04:49.880Z,56.09
2019-04-27T13:07:18.648Z,57.10
2019-04-27T13:09:47.829Z,59.32
2019-04-27T13:12:16.644Z,57.86
2019-04-27T13:14:45.805Z,54.53
2019-04-27T13:17:17.735Z,53.45
2019-04-27T13:19:46.579Z,53.37
2019-04-27T13:22:16.528Z,52.15
2019-04-27T13:24:45.931Z,50.65
2019-04-27T13:27:16.575Z,50.19
2019-04-27T13:29:46.663Z,50.41
2019-04-27T13:32:16.448Z,51.84
2019-04-27T13:34:56.677Z,50.93
2019-04-27T13:37:37.105Z,51.02
2019-04-27T13:40:09.643Z,50.60
2019-04-27T13:42:44.711Z,49.12
2019-04-27T13:45:21.343Z,49.48
2019-04-27T13:47:56.754Z,48.57
2019-04-27T13:50:39.445Z,48.08
2019-04-27T13:53:08.549Z,48.13
2019-04-27T13:55:37.262Z,48.63
2019-04-27T13:58:06.080Z,50.11
2019-04-27T14:00:37.767Z,47.07
2019-04-27T14:03:05.530Z,46.96
2019-04-27T14:05:34.282Z,48.14
2019-04-27T14:08:03.123Z,47.01
2019-04-27T14:10:32.259Z,47.08
2019-04-27T14:13:01.136Z,47.23
2019-04-27T14:15:29.964Z,47.89
2019-04-27T14:17:59.167Z,45.60
2019-04-27T14:20:28.745Z,46.82
2019-04-27T14:23:12.476Z,46.44
2019-04-27T14:25:41.789Z,46.36
2019-04-27T14:28:10.553Z,47.23
2019-04-27T14:30:40.053Z,49.05
2019-04-27T14:33:09.065Z,48.32
2019-04-27T14:35:37.942Z,47.74
2019-04-27T14:38:06.651Z,48.99
2019-04-27T14:40:35.431Z,51.13
2019-04-27T14:43:04.258Z,57.98
2019-04-27T14:45:33.044Z,57.73
2019-04-27T14:48:01.768Z,62.20
2019-04-27T14:50:30.526Z,60.67
2019-04-27T14:52:59.335Z,61.00
2019-04-27T14:55:29.983Z,60.93
2019-04-27T14:57:58.717Z,57.36
2019-04-27T15:00:28.772Z,56.33
2019-04-27T15:02:59.130Z,53.45
2019-04-27T15:05:28.196Z,53.40
2019-04-27T15:07:56.984Z,51.76
2019-04-27T15:10:27.091Z,46.43
2019-04-27T15:12:56.518Z,46.79
2019-04-27T15:15:28.340Z,44.82
2019-04-27T15:17:57.574Z,45.71
2019-04-27T15:20:32.883Z,44.51
2019-04-27T15:23:01.622Z,44.64
2019-04-27T15:25:35.073Z,45.18
2019-04-27T15:28:03.301Z,43.96
2019-04-27T15:30:50.055Z,44.30
2019-04-27T15:33:40.901Z,44.51
2019-04-27T15:36:14.699Z,44.83
2019-04-27T15:38:47.706Z,45.02
2019-04-27T15:41:24.324Z,44.44
2019-04-27T15:43:53.194Z,44.62
2019-04-27T15:46:22.138Z,44.05
2019-04-27T15:48:54.137Z,47.53
2019-04-27T15:51:21.892Z,47.11
2019-04-27T15:53:53.823Z,46.23
2019-04-27T15:56:22.202Z,45.18
2019-04-27T15:58:51.018Z,45.73
2019-04-27T16:01:19.806Z,45.89
2019-04-27T16:03:51.888Z,46.63
2019-04-27T16:06:19.714Z,46.50
2019-04-27T16:08:52.518Z,45.83
2019-04-27T16:11:21.340Z,46.83
2019-04-27T16:13:50.480Z,46.50
2019-04-27T16:16:19.666Z,47.19
2019-04-27T16:18:49.118Z,47.49
2019-04-27T16:21:20.037Z,47.59
2019-04-27T16:23:48.514Z,46.85
2019-04-27T16:26:18.328Z,46.52
2019-04-27T16:28:52.928Z,47.42
2019-04-27T16:31:18.676Z,46.56
2019-04-27T16:33:49.712Z,46.68
2019-04-27T16:36:19.726Z,46.61
2019-04-27T16:39:03.597Z,47.93
2019-04-27T16:41:32.977Z,47.31
2019-04-27T16:44:06.984Z,46.18
2019-04-27T16:46:34.828Z,48.50
2019-04-27T16:49:07.260Z,46.34
2019-04-27T16:51:36.851Z,46.87
2019-04-27T16:54:11.104Z,48.41
2019-04-27T16:56:38.057Z,45.65
2019-04-27T17:01:40.033Z,45.35
2019-04-27T17:04:13.525Z,45.22
2019-04-27T17:06:45.993Z,44.56
2019-04-27T17:09:11.778Z,43.63
2019-04-27T17:11:43.848Z,46.92
2019-04-27T17:12:40.260Z,46.00
2019-04-27T17:14:28.985Z,47.36
2019-04-27T17:17:17.823Z,45.94
2019-04-27T17:19:51.928Z,46.09
2019-04-27T17:22:21.009Z,47.44
2019-04-27T17:24:50.130Z,47.32
2019-04-27T17:27:28.495Z,46.14
2019-04-27T17:29:58.452Z,46.78
2019-04-27T17:32:33.490Z,46.62
2019-04-27T17:35:04.996Z,47.39
2019-04-27T17:37:33.773Z,47.06
2019-04-27T17:40:01.511Z,47.57
2019-04-27T17:42:30.760Z,49.00
2019-04-27T17:45:00.586Z,48.92
2019-04-27T17:47:30.125Z,49.49
2019-04-27T17:49:59.068Z,50.56
2019-04-27T17:52:27.841Z,50.34
2019-04-27T17:54:58.999Z,50.81
2019-04-27T17:57:30.235Z,51.24
2019-04-27T18:00:03.123Z,50.16
2019-04-27T18:02:29.418Z,51.77
2019-04-27T18:04:58.830Z,51.77
2019-04-27T18:07:30.116Z,51.46
2019-04-27T18:09:58.581Z,51.53
2019-04-27T18:12:28.549Z,51.94
2019-04-27T18:14:58.121Z,52.06
2019-04-27T18:17:28.752Z,53.61
2019-04-27T18:20:00.367Z,52.97
2019-04-27T18:22:36.507Z,52.31
2019-04-27T18:25:06.709Z,57.05
2019-04-27T18:27:59.978Z,58.93
2019-04-27T18:30:44.839Z,61.50
2019-04-27T18:33:18.470Z,63.82
2019-04-27T18:35:49.038Z,66.40
2019-04-27T18:38:18.106Z,66.94
2019-04-27T18:40:48.733Z,68.87
2019-04-27T18:43:18.710Z,69.24
2019-04-27T18:45:48.602Z,69.65
2019-04-27T18:48:25.021Z,72.96
2019-04-27T18:51:03.764Z,74.00
2019-04-27T18:53:32.990Z,74.17
2019-04-27T18:56:05.308Z,74.34
2019-04-27T18:58:32.431Z,73.17
2019-04-27T19:01:01.307Z,73.97
2019-04-27T19:03:31.734Z,75.08
2019-04-27T19:06:00.550Z,74.28
2019-04-27T19:08:29.269Z,73.93
2019-04-27T19:11:00.087Z,74.38
2019-04-27T19:13:28.654Z,75.61
2019-04-27T19:15:57.896Z,75.67
2019-04-27T19:18:28.102Z,76.36
2019-04-27T19:20:58.447Z,75.86
2019-04-27T19:23:28.598Z,77.03
2019-04-27T19:26:16.291Z,77.21
2019-04-27T19:28:59.086Z,77.91
2019-04-27T19:31:31.767Z,78.75
2019-04-27T19:34:00.617Z,78.96
2019-04-27T19:36:30.406Z,80.14
2019-04-27T19:38:59.484Z,79.58
2019-04-27T19:41:28.856Z,79.76
2019-04-27T19:43:59.740Z,79.77
2019-04-27T19:46:28.577Z,79.80
2019-04-27T19:48:59.275Z,79.62
2019-04-27T19:51:28.354Z,80.67
2019-04-27T19:53:58.144Z,80.83
2019-04-27T19:56:28.343Z,81.25
2019-04-27T19:58:59.434Z,80.65
2019-04-27T20:01:34.339Z,80.68
2019-04-27T20:04:08.642Z,80.75
2019-04-27T20:06:38.433Z,80.52
2019-04-27T20:09:19.111Z,80.50
2019-04-27T20:11:47.989Z,81.01
2019-04-27T20:14:16.890Z,81.56
2019-04-27T20:16:45.835Z,80.77
2019-04-27T20:19:14.742Z,81.14
2019-04-27T20:21:43.596Z,80.21
2019-04-27T20:24:12.754Z,80.45
2019-04-27T20:26:41.567Z,80.15
2019-04-27T20:29:11.806Z,80.33
2019-04-27T20:31:41.060Z,80.53
2019-04-27T20:34:09.986Z,80.65
2019-04-27T20:36:38.805Z,80.48
2019-04-27T20:39:07.740Z,80.41
2019-04-27T20:41:36.634Z,80.41
2019-04-27T20:44:05.989Z,80.27
2019-04-27T20:46:34.969Z,80.75
2019-04-27T20:49:15.471Z,80.62
2019-04-27T20:52:15.541Z,81.01
2019-04-27T20:54:44.383Z,80.61
2019-04-27T20:57:13.597Z,81.14
2019-04-27T20:59:42.821Z,81.39
2019-04-27T21:02:32.095Z,81.61
2019-04-27T21:05:12.610Z,81.69
2019-04-27T21:07:44.959Z,81.78
2019-04-27T21:10:13.840Z,82.08
2019-04-27T21:12:43.061Z,82.08
2019-04-27T21:15:12.993Z,81.63
2019-04-27T21:17:42.888Z,81.76
2019-04-27T21:20:13.267Z,81.90
2019-04-27T21:22:42.104Z,82.48
2019-04-27T21:25:11.839Z,82.86
2019-04-27T21:27:41.194Z,82.77
2019-04-27T21:30:11.579Z,83.03
2019-04-27T21:32:40.562Z,82.40
2019-04-27T21:35:11.013Z,82.63
2019-04-27T21:37:40.909Z,82.94
2019-04-27T21:40:17.908Z,83.21
2019-04-27T21:42:47.377Z,83.83
2019-04-27T21:45:16.819Z,83.71
2019-04-27T21:47:45.820Z,83.70
2019-04-27T21:50:15.902Z,83.49
2019-04-27T21:52:55.252Z,83.66
2019-04-27T21:55:24.251Z,83.39
2019-04-27T21:57:53.090Z,83.37
2019-04-27T22:00:46.263Z,83.18
2019-04-27T22:03:16.067Z,83.18
2019-04-27T22:05:44.895Z,83.12
2019-04-27T22:08:13.867Z,82.66
2019-04-27T22:10:43.198Z,82.41
2019-04-27T22:13:12.023Z,82.85
2019-04-27T22:15:41.626Z,82.69
2019-04-27T22:18:11.147Z,82.82
2019-04-27T22:20:42.391Z,82.56
2019-04-27T22:23:22.977Z,82.44
2019-04-27T22:25:54.145Z,81.93
2019-04-27T22:28:21.864Z,82.40
2019-04-27T22:30:50.666Z,82.21
2019-04-27T22:33:21.329Z,82.46
2019-04-27T22:35:51.657Z,82.48
2019-04-27T22:38:20.777Z,82.89
2019-04-27T22:40:59.147Z,82.44
2019-04-27T22:43:45.716Z,82.06
2019-04-27T22:46:17.189Z,82.65
2019-04-27T22:48:46.319Z,82.51
2019-04-27T22:51:15.530Z,83.06
2019-04-27T22:53:44.675Z,82.64
2019-04-27T22:56:18.662Z,82.65
2019-04-27T22:59:01.030Z,82.63
2019-04-27T23:01:46.393Z,82.88
2019-04-27T23:04:17.813Z,83.42
2019-04-27T23:06:46.670Z,83.56
2019-04-27T23:09:15.484Z,83.30
2019-04-27T23:11:44.346Z,83.33
2019-04-27T23:14:13.113Z,83.53
2019-04-27T23:16:43.666Z,82.44
2019-04-27T23:19:12.582Z,82.44
2019-04-27T23:21:41.433Z,82.60
2019-04-27T23:24:10.199Z,82.62
2019-04-27T23:26:39.005Z,82.45
2019-04-27T23:29:15.169Z,82.30
2019-04-27T23:31:52.730Z,82.64
2019-04-27T23:34:21.708Z,82.25
2019-04-27T23:36:51.797Z,82.73
2019-04-27T23:39:20.648Z,82.48
2019-04-27T23:41:49.509Z,82.76
2019-04-27T23:44:18.552Z,82.41
2019-04-27T23:46:47.626Z,81.98
2019-04-27T23:49:16.513Z,82.22
2019-04-27T23:51:50.427Z,82.54
2019-04-27T23:54:19.512Z,82.58
2019-04-27T23:56:48.633Z,82.17
2019-04-27T23:59:24.620Z,82.49
